sensor_id;sensor_type;location;lat;lon;timestamp;P1;durP1;ratioP1;P2;durP2;ratioP2
48554;SDS011;34336;48.270;16.716;2024-02-23T00:01:57;1.83;;;1.23;;
48554;SDS011;34336;48.270;16.716;2024-02-23T00:04:25;1.88;;;1.52;;
48554;SDS011;34336;48.270;16.716;2024-02-23T00:06:53;2.42;;;1.50;;
48554;SDS011;34336;48.270;16.716;2024-02-23T00:09:21;1.90;;;1.40;;
48554;SDS011;34336;48.270;16.716;2024-02-23T00:11:48;2.05;;;1.40;;
48554;SDS011;34336;48.270;16.716;2024-02-23T00:14:16;3.75;;;1.33;;
48554;SDS011;34336;48.270;16.716;2024-02-23T00:16:45;3.13;;;1.58;;
48554;SDS011;34336;48.270;16.716;2024-02-23T00:19:13;2.08;;;1.30;;
48554;SDS011;34336;48.270;16.716;2024-02-23T00:21:41;2.60;;;1.40;;
48554;SDS011;34336;48.270;16.716;2024-02-23T00:24:09;2.03;;;1.33;;
48554;SDS011;34336;48.270;16.716;2024-02-23T00:26:37;1.77;;;1.25;;
48554;SDS011;34336;48.270;16.716;2024-02-23T00:29:05;1.20;;;1.00;;
48554;SDS011;34336;48.270;16.716;2024-02-23T00:31:32;1.67;;;1.23;;
48554;SDS011;34336;48.270;16.716;2024-02-23T00:34:00;3.03;;;1.35;;
48554;SDS011;34336;48.270;16.716;2024-02-23T00:36:28;1.38;;;1.27;;
48554;SDS011;34336;48.270;16.716;2024-02-23T00:38:56;2.05;;;1.17;;
48554;SDS011;34336;48.270;16.716;2024-02-23T00:41:23;1.98;;;1.13;;
48554;SDS011;34336;48.270;16.716;2024-02-23T00:43:51;1.33;;;0.88;;
48554;SDS011;34336;48.270;16.716;2024-02-23T00:46:19;2.10;;;1.20;;
48554;SDS011;34336;48.270;16.716;2024-02-23T00:48:46;5.47;;;1.20;;
48554;SDS011;34336;48.270;16.716;2024-02-23T00:51:14;1.75;;;1.10;;
48554;SDS011;34336;48.270;16.716;2024-02-23T00:53:42;1.85;;;1.02;;
48554;SDS011;34336;48.270;16.716;2024-02-23T00:56:10;1.70;;;1.33;;
48554;SDS011;34336;48.270;16.716;2024-02-23T00:58:38;1.08;;;0.98;;
48554;SDS011;34336;48.270;16.716;2024-02-23T01:01:05;1.25;;;1.02;;
48554;SDS011;34336;48.270;16.716;2024-02-23T01:03:34;1.35;;;1.02;;
48554;SDS011;34336;48.270;16.716;2024-02-23T01:06:02;2.33;;;1.10;;
48554;SDS011;34336;48.270;16.716;2024-02-23T01:08:30;1.23;;;0.88;;
48554;SDS011;34336;48.270;16.716;2024-02-23T01:10:58;1.20;;;0.85;;
48554;SDS011;34336;48.270;16.716;2024-02-23T01:13:26;0.80;;;0.80;;
48554;SDS011;34336;48.270;16.716;2024-02-23T01:15:53;1.52;;;1.20;;
48554;SDS011;34336;48.270;16.716;2024-02-23T01:18:21;1.23;;;0.90;;
48554;SDS011;34336;48.270;16.716;2024-02-23T01:20:49;2.17;;;1.25;;
48554;SDS011;34336;48.270;16.716;2024-02-23T01:23:16;1.13;;;0.82;;
48554;SDS011;34336;48.270;16.716;2024-02-23T01:25:44;1.15;;;1.00;;
48554;SDS011;34336;48.270;16.716;2024-02-23T01:28:12;1.65;;;1.10;;
48554;SDS011;34336;48.270;16.716;2024-02-23T01:30:40;1.35;;;0.95;;
48554;SDS011;34336;48.270;16.716;2024-02-23T01:33:08;1.13;;;1.00;;
48554;SDS011;34336;48.270;16.716;2024-02-23T01:35:35;2.70;;;1.00;;
48554;SDS011;34336;48.270;16.716;2024-02-23T01:38:03;1.88;;;0.98;;
48554;SDS011;34336;48.270;16.716;2024-02-23T01:40:32;1.08;;;0.98;;
48554;SDS011;34336;48.270;16.716;2024-02-23T01:43:00;1.48;;;1.00;;
48554;SDS011;34336;48.270;16.716;2024-02-23T01:45:29;1.08;;;0.90;;
48554;SDS011;34336;48.270;16.716;2024-02-23T01:47:57;1.38;;;0.90;;
48554;SDS011;34336;48.270;16.716;2024-02-23T01:50:26;1.70;;;0.90;;
48554;SDS011;34336;48.270;16.716;2024-02-23T01:52:55;1.00;;;0.85;;
48554;SDS011;34336;48.270;16.716;2024-02-23T01:55:23;2.05;;;1.10;;
48554;SDS011;34336;48.270;16.716;2024-02-23T01:57:51;1.40;;;1.00;;
48554;SDS011;34336;48.270;16.716;2024-02-23T02:00:19;2.25;;;1.10;;
48554;SDS011;34336;48.270;16.716;2024-02-23T02:02:53;1.17;;;0.90;;
48554;SDS011;34336;48.270;16.716;2024-02-23T02:05:21;1.77;;;1.00;;
48554;SDS011;34336;48.270;16.716;2024-02-23T02:07:50;3.13;;;0.98;;
48554;SDS011;34336;48.270;16.716;2024-02-23T02:10:20;1.58;;;1.00;;
48554;SDS011;34336;48.270;16.716;2024-02-23T02:12:48;2.08;;;0.93;;
48554;SDS011;34336;48.270;16.716;2024-02-23T02:15:16;1.42;;;1.00;;
48554;SDS011;34336;48.270;16.716;2024-02-23T02:17:44;2.38;;;0.95;;
48554;SDS011;34336;48.270;16.716;2024-02-23T02:20:12;1.55;;;0.90;;
48554;SDS011;34336;48.270;16.716;2024-02-23T02:22:40;1.95;;;0.85;;
48554;SDS011;34336;48.270;16.716;2024-02-23T02:25:08;2.20;;;1.00;;
48554;SDS011;34336;48.270;16.716;2024-02-23T02:27:35;0.93;;;0.80;;
48554;SDS011;34336;48.270;16.716;2024-02-23T02:30:03;0.85;;;0.70;;
48554;SDS011;34336;48.270;16.716;2024-02-23T02:32:32;1.10;;;0.80;;
48554;SDS011;34336;48.270;16.716;2024-02-23T02:35:03;1.40;;;0.82;;
48554;SDS011;34336;48.270;16.716;2024-02-23T02:37:31;1.60;;;0.77;;
48554;SDS011;34336;48.270;16.716;2024-02-23T02:39:58;1.73;;;0.85;;
48554;SDS011;34336;48.270;16.716;2024-02-23T02:42:26;0.88;;;0.77;;
48554;SDS011;34336;48.270;16.716;2024-02-23T02:44:55;1.58;;;0.90;;
48554;SDS011;34336;48.270;16.716;2024-02-23T02:47:23;0.93;;;0.80;;
48554;SDS011;34336;48.270;16.716;2024-02-23T02:49:51;1.27;;;0.75;;
48554;SDS011;34336;48.270;16.716;2024-02-23T02:52:19;0.98;;;0.77;;
48554;SDS011;34336;48.270;16.716;2024-02-23T02:54:50;1.23;;;0.80;;
48554;SDS011;34336;48.270;16.716;2024-02-23T02:57:17;1.10;;;0.90;;
48554;SDS011;34336;48.270;16.716;2024-02-23T02:59:45;0.93;;;0.75;;
48554;SDS011;34336;48.270;16.716;2024-02-23T03:02:13;1.67;;;0.70;;
48554;SDS011;34336;48.270;16.716;2024-02-23T03:04:47;0.82;;;0.70;;
48554;SDS011;34336;48.270;16.716;2024-02-23T03:07:16;1.08;;;0.70;;
48554;SDS011;34336;48.270;16.716;2024-02-23T03:09:43;0.95;;;0.77;;
48554;SDS011;34336;48.270;16.716;2024-02-23T03:12:11;1.17;;;0.70;;
48554;SDS011;34336;48.270;16.716;2024-02-23T03:14:39;1.08;;;0.80;;
48554;SDS011;34336;48.270;16.716;2024-02-23T03:17:07;1.15;;;0.80;;
48554;SDS011;34336;48.270;16.716;2024-02-23T03:19:38;1.40;;;0.60;;
48554;SDS011;34336;48.270;16.716;2024-02-23T03:22:06;0.98;;;0.80;;
48554;SDS011;34336;48.270;16.716;2024-02-23T03:24:34;0.88;;;0.68;;
48554;SDS011;34336;48.270;16.716;2024-02-23T03:27:02;0.88;;;0.50;;
48554;SDS011;34336;48.270;16.716;2024-02-23T03:29:30;0.85;;;0.70;;
48554;SDS011;34336;48.270;16.716;2024-02-23T03:31:58;2.05;;;0.73;;
48554;SDS011;34336;48.270;16.716;2024-02-23T03:34:28;0.88;;;0.70;;
48554;SDS011;34336;48.270;16.716;2024-02-23T03:36:56;0.82;;;0.60;;
48554;SDS011;34336;48.270;16.716;2024-02-23T03:39:25;1.00;;;0.73;;
48554;SDS011;34336;48.270;16.716;2024-02-23T03:41:52;0.80;;;0.68;;
48554;SDS011;34336;48.270;16.716;2024-02-23T03:44:20;0.57;;;0.57;;
48554;SDS011;34336;48.270;16.716;2024-02-23T03:46:48;1.48;;;0.70;;
48554;SDS011;34336;48.270;16.716;2024-02-23T03:49:16;0.82;;;0.73;;
48554;SDS011;34336;48.270;16.716;2024-02-23T03:51:44;0.75;;;0.50;;
48554;SDS011;34336;48.270;16.716;2024-02-23T03:54:11;0.73;;;0.60;;
48554;SDS011;34336;48.270;16.716;2024-02-23T03:56:39;0.95;;;0.60;;
48554;SDS011;34336;48.270;16.716;2024-02-23T03:59:08;0.60;;;0.60;;
48554;SDS011;34336;48.270;16.716;2024-02-23T04:01:37;0.68;;;0.65;;
48554;SDS011;34336;48.270;16.716;2024-02-23T04:04:05;0.82;;;0.77;;
48554;SDS011;34336;48.270;16.716;2024-02-23T04:06:33;0.70;;;0.63;;
48554;SDS011;34336;48.270;16.716;2024-02-23T04:09:01;2.50;;;2.13;;
48554;SDS011;34336;48.270;16.716;2024-02-23T04:11:32;4.93;;;2.72;;
48554;SDS011;34336;48.270;16.716;2024-02-23T04:14:00;3.90;;;2.45;;
48554;SDS011;34336;48.270;16.716;2024-02-23T04:16:28;2.97;;;1.58;;
48554;SDS011;34336;48.270;16.716;2024-02-23T04:18:56;1.70;;;0.90;;
48554;SDS011;34336;48.270;16.716;2024-02-23T04:21:24;0.70;;;0.70;;
48554;SDS011;34336;48.270;16.716;2024-02-23T04:23:51;2.33;;;0.80;;
48554;SDS011;34336;48.270;16.716;2024-02-23T04:26:19;2.83;;;1.10;;
48554;SDS011;34336;48.270;16.716;2024-02-23T04:28:47;4.40;;;1.10;;
48554;SDS011;34336;48.270;16.716;2024-02-23T04:31:15;1.70;;;1.20;;
48554;SDS011;34336;48.270;16.716;2024-02-23T04:33:42;2.72;;;1.60;;
48554;SDS011;34336;48.270;16.716;2024-02-23T04:36:10;6.00;;;3.25;;
48554;SDS011;34336;48.270;16.716;2024-02-23T04:38:38;9.20;;;6.75;;
48554;SDS011;34336;48.270;16.716;2024-02-23T04:41:05;15.40;;;11.75;;
48554;SDS011;34336;48.270;16.716;2024-02-23T04:43:34;21.98;;;14.95;;
48554;SDS011;34336;48.270;16.716;2024-02-23T04:46:01;21.92;;;15.52;;
48554;SDS011;34336;48.270;16.716;2024-02-23T04:48:29;23.80;;;18.30;;
48554;SDS011;34336;48.270;16.716;2024-02-23T04:50:57;27.83;;;20.70;;
48554;SDS011;34336;48.270;16.716;2024-02-23T04:53:25;30.25;;;21.85;;
48554;SDS011;34336;48.270;16.716;2024-02-23T04:55:53;34.70;;;23.60;;
48554;SDS011;34336;48.270;16.716;2024-02-23T04:58:21;34.30;;;24.38;;
48554;SDS011;34336;48.270;16.716;2024-02-23T05:00:49;36.22;;;26.65;;
48554;SDS011;34336;48.270;16.716;2024-02-23T05:03:16;35.90;;;26.23;;
48554;SDS011;34336;48.270;16.716;2024-02-23T05:05:44;39.40;;;27.67;;
48554;SDS011;34336;48.270;16.716;2024-02-23T05:08:12;40.47;;;28.27;;
48554;SDS011;34336;48.270;16.716;2024-02-23T05:10:39;41.28;;;28.75;;
48554;SDS011;34336;48.270;16.716;2024-02-23T05:13:07;40.47;;;28.67;;
48554;SDS011;34336;48.270;16.716;2024-02-23T05:15:35;41.90;;;29.83;;
48554;SDS011;34336;48.270;16.716;2024-02-23T05:18:02;43.42;;;30.83;;
48554;SDS011;34336;48.270;16.716;2024-02-23T05:20:31;41.65;;;29.40;;
48554;SDS011;34336;48.270;16.716;2024-02-23T05:22:59;39.28;;;29.10;;
48554;SDS011;34336;48.270;16.716;2024-02-23T05:25:27;43.97;;;29.75;;
48554;SDS011;34336;48.270;16.716;2024-02-23T05:27:55;41.53;;;28.40;;
48554;SDS011;34336;48.270;16.716;2024-02-23T05:30:22;41.03;;;28.27;;
48554;SDS011;34336;48.270;16.716;2024-02-23T05:32:50;37.65;;;26.85;;
48554;SDS011;34336;48.270;16.716;2024-02-23T05:35:18;35.22;;;25.30;;
48554;SDS011;34336;48.270;16.716;2024-02-23T05:37:46;29.67;;;21.10;;
48554;SDS011;34336;48.270;16.716;2024-02-23T05:40:13;26.63;;;18.75;;
48554;SDS011;34336;48.270;16.716;2024-02-23T05:42:41;17.48;;;12.63;;
48554;SDS011;34336;48.270;16.716;2024-02-23T05:45:09;15.10;;;11.35;;
48554;SDS011;34336;48.270;16.716;2024-02-23T05:47:38;11.60;;;8.68;;
48554;SDS011;34336;48.270;16.716;2024-02-23T05:52:37;6.88;;;4.82;;
48554;SDS011;34336;48.270;16.716;2024-02-23T05:55:06;4.85;;;3.83;;
48554;SDS011;34336;48.270;16.716;2024-02-23T05:57:34;6.72;;;4.65;;
48554;SDS011;34336;48.270;16.716;2024-02-23T06:00:02;5.43;;;3.67;;
48554;SDS011;34336;48.270;16.716;2024-02-23T06:02:37;6.00;;;3.30;;
48554;SDS011;34336;48.270;16.716;2024-02-23T06:05:05;4.32;;;2.72;;
48554;SDS011;34336;48.270;16.716;2024-02-23T06:07:35;5.47;;;2.40;;
48554;SDS011;34336;48.270;16.716;2024-02-23T06:10:04;5.18;;;2.30;;
48554;SDS011;34336;48.270;16.716;2024-02-23T06:12:32;3.35;;;2.17;;
48554;SDS011;34336;48.270;16.716;2024-02-23T06:14:59;3.38;;;2.20;;
48554;SDS011;34336;48.270;16.716;2024-02-23T06:17:27;3.40;;;2.20;;
48554;SDS011;34336;48.270;16.716;2024-02-23T06:19:55;3.20;;;2.20;;
48554;SDS011;34336;48.270;16.716;2024-02-23T06:22:25;3.75;;;2.05;;
48554;SDS011;34336;48.270;16.716;2024-02-23T06:24:53;11.07;;;6.40;;
48554;SDS011;34336;48.270;16.716;2024-02-23T06:27:21;2.35;;;1.58;;
48554;SDS011;34336;48.270;16.716;2024-02-23T06:29:48;2.50;;;1.70;;
48554;SDS011;34336;48.270;16.716;2024-02-23T06:32:16;2.92;;;1.67;;
48554;SDS011;34336;48.270;16.716;2024-02-23T06:34:44;2.67;;;1.88;;
48554;SDS011;34336;48.270;16.716;2024-02-23T06:37:13;3.10;;;1.63;;
48554;SDS011;34336;48.270;16.716;2024-02-23T06:39:40;2.03;;;1.30;;
48554;SDS011;34336;48.270;16.716;2024-02-23T06:42:08;2.15;;;1.42;;
48554;SDS011;34336;48.270;16.716;2024-02-23T06:44:36;2.80;;;0.98;;
48554;SDS011;34336;48.270;16.716;2024-02-23T06:47:04;1.13;;;0.85;;
48554;SDS011;34336;48.270;16.716;2024-02-23T06:49:33;1.80;;;1.00;;
48554;SDS011;34336;48.270;16.716;2024-02-23T06:52:01;1.83;;;1.00;;
48554;SDS011;34336;48.270;16.716;2024-02-23T06:54:28;1.23;;;0.82;;
48554;SDS011;34336;48.270;16.716;2024-02-23T06:56:56;2.47;;;1.00;;
48554;SDS011;34336;48.270;16.716;2024-02-23T06:59:24;1.40;;;0.93;;
48554;SDS011;34336;48.270;16.716;2024-02-23T07:01:52;1.50;;;1.08;;
48554;SDS011;34336;48.270;16.716;2024-02-23T07:04:20;2.40;;;0.77;;
48554;SDS011;34336;48.270;16.716;2024-02-23T07:06:48;0.98;;;0.85;;
48554;SDS011;34336;48.270;16.716;2024-02-23T07:09:16;1.00;;;0.80;;
48554;SDS011;34336;48.270;16.716;2024-02-23T07:11:44;2.03;;;1.00;;
48554;SDS011;34336;48.270;16.716;2024-02-23T07:14:12;1.05;;;0.82;;
48554;SDS011;34336;48.270;16.716;2024-02-23T07:16:41;1.83;;;0.90;;
48554;SDS011;34336;48.270;16.716;2024-02-23T07:19:09;2.20;;;1.00;;
48554;SDS011;34336;48.270;16.716;2024-02-23T07:21:36;0.90;;;0.80;;
48554;SDS011;34336;48.270;16.716;2024-02-23T07:24:08;2.35;;;0.90;;
48554;SDS011;34336;48.270;16.716;2024-02-23T07:26:36;1.98;;;0.88;;
48554;SDS011;34336;48.270;16.716;2024-02-23T07:29:04;1.83;;;1.00;;
48554;SDS011;34336;48.270;16.716;2024-02-23T07:31:32;0.90;;;0.70;;
48554;SDS011;34336;48.270;16.716;2024-02-23T07:33:59;1.25;;;0.70;;
48554;SDS011;34336;48.270;16.716;2024-02-23T07:36:27;1.45;;;0.93;;
48554;SDS011;34336;48.270;16.716;2024-02-23T07:38:55;2.20;;;0.95;;
48554;SDS011;34336;48.270;16.716;2024-02-23T07:41:23;3.35;;;1.30;;
48554;SDS011;34336;48.270;16.716;2024-02-23T07:43:51;3.28;;;1.98;;
48554;SDS011;34336;48.270;16.716;2024-02-23T07:46:19;2.53;;;1.20;;
48554;SDS011;34336;48.270;16.716;2024-02-23T07:48:52;3.95;;;2.08;;
48554;SDS011;34336;48.270;16.716;2024-02-23T07:51:21;3.20;;;2.45;;
48554;SDS011;34336;48.270;16.716;2024-02-23T07:53:48;7.22;;;6.47;;
48554;SDS011;34336;48.270;16.716;2024-02-23T07:56:16;7.55;;;6.85;;
48554;SDS011;34336;48.270;16.716;2024-02-23T07:58:44;10.52;;;9.43;;
48554;SDS011;34336;48.270;16.716;2024-02-23T08:01:12;11.07;;;9.98;;
48554;SDS011;34336;48.270;16.716;2024-02-23T08:03:40;7.97;;;7.15;;
48554;SDS011;34336;48.270;16.716;2024-02-23T08:06:09;8.95;;;7.75;;
48554;SDS011;34336;48.270;16.716;2024-02-23T08:08:39;13.05;;;10.20;;
48554;SDS011;34336;48.270;16.716;2024-02-23T08:11:07;11.32;;;9.20;;
48554;SDS011;34336;48.270;16.716;2024-02-23T08:13:35;4.40;;;3.88;;
48554;SDS011;34336;48.270;16.716;2024-02-23T08:16:03;3.47;;;1.48;;
48554;SDS011;34336;48.270;16.716;2024-02-23T08:18:31;3.97;;;1.98;;
48554;SDS011;34336;48.270;16.716;2024-02-23T08:20:59;2.67;;;2.05;;
48554;SDS011;34336;48.270;16.716;2024-02-23T08:23:29;1.85;;;1.60;;
48554;SDS011;34336;48.270;16.716;2024-02-23T08:25:57;3.60;;;2.00;;
48554;SDS011;34336;48.270;16.716;2024-02-23T08:28:26;3.10;;;2.55;;
48554;SDS011;34336;48.270;16.716;2024-02-23T08:30:54;4.88;;;2.22;;
48554;SDS011;34336;48.270;16.716;2024-02-23T08:33:22;4.53;;;2.50;;
48554;SDS011;34336;48.270;16.716;2024-02-23T08:35:50;4.13;;;2.90;;
48554;SDS011;34336;48.270;16.716;2024-02-23T08:38:17;2.38;;;2.17;;
48554;SDS011;34336;48.270;16.716;2024-02-23T08:40:45;3.08;;;1.73;;
48554;SDS011;34336;48.270;16.716;2024-02-23T08:43:13;4.10;;;2.28;;
48554;SDS011;34336;48.270;16.716;2024-02-23T08:45:41;6.65;;;3.08;;
48554;SDS011;34336;48.270;16.716;2024-02-23T08:48:09;6.95;;;2.75;;
48554;SDS011;34336;48.270;16.716;2024-02-23T08:50:41;3.90;;;2.28;;
48554;SDS011;34336;48.270;16.716;2024-02-23T08:53:09;5.28;;;3.17;;
48554;SDS011;34336;48.270;16.716;2024-02-23T08:55:37;4.85;;;3.58;;
48554;SDS011;34336;48.270;16.716;2024-02-23T08:58:05;5.10;;;3.03;;
48554;SDS011;34336;48.270;16.716;2024-02-23T09:00:33;3.08;;;2.17;;
48554;SDS011;34336;48.270;16.716;2024-02-23T09:03:00;4.47;;;2.92;;
48554;SDS011;34336;48.270;16.716;2024-02-23T09:05:31;3.78;;;3.17;;
48554;SDS011;34336;48.270;16.716;2024-02-23T09:07:59;3.72;;;2.47;;
48554;SDS011;34336;48.270;16.716;2024-02-23T09:10:26;3.25;;;2.60;;
48554;SDS011;34336;48.270;16.716;2024-02-23T09:12:54;5.20;;;2.40;;
48554;SDS011;34336;48.270;16.716;2024-02-23T09:15:22;3.20;;;2.20;;
48554;SDS011;34336;48.270;16.716;2024-02-23T09:17:49;2.85;;;1.80;;
48554;SDS011;34336;48.270;16.716;2024-02-23T09:20:17;1.30;;;1.10;;
48554;SDS011;34336;48.270;16.716;2024-02-23T09:22:45;2.78;;;1.15;;
48554;SDS011;34336;48.270;16.716;2024-02-23T09:25:13;1.73;;;1.00;;
48554;SDS011;34336;48.270;16.716;2024-02-23T09:27:41;3.10;;;0.90;;
48554;SDS011;34336;48.270;16.716;2024-02-23T09:30:12;1.58;;;1.00;;
48554;SDS011;34336;48.270;16.716;2024-02-23T09:32:41;0.95;;;0.80;;
48554;SDS011;34336;48.270;16.716;2024-02-23T09:35:11;1.30;;;1.00;;
48554;SDS011;34336;48.270;16.716;2024-02-23T09:37:39;2.38;;;1.02;;
48554;SDS011;34336;48.270;16.716;2024-02-23T09:40:07;2.72;;;1.10;;
48554;SDS011;34336;48.270;16.716;2024-02-23T09:42:35;1.38;;;0.98;;
48554;SDS011;34336;48.270;16.716;2024-02-23T09:45:05;1.65;;;0.90;;
48554;SDS011;34336;48.270;16.716;2024-02-23T09:47:33;2.30;;;0.80;;
48554;SDS011;34336;48.270;16.716;2024-02-23T09:50:02;1.73;;;0.90;;
48554;SDS011;34336;48.270;16.716;2024-02-23T09:52:31;1.42;;;0.88;;
48554;SDS011;34336;48.270;16.716;2024-02-23T09:54:59;24.48;;;15.45;;
48554;SDS011;34336;48.270;16.716;2024-02-23T09:57:27;6.55;;;5.95;;
48554;SDS011;34336;48.270;16.716;2024-02-23T09:59:55;8.88;;;8.07;;
48554;SDS011;34336;48.270;16.716;2024-02-23T10:02:23;5.97;;;5.38;;
48554;SDS011;34336;48.270;16.716;2024-02-23T10:04:50;2.97;;;1.83;;
48554;SDS011;34336;48.270;16.716;2024-02-23T10:07:19;1.60;;;1.30;;
48554;SDS011;34336;48.270;16.716;2024-02-23T10:09:47;2.33;;;1.80;;
48554;SDS011;34336;48.270;16.716;2024-02-23T10:12:15;1.65;;;1.55;;
48554;SDS011;34336;48.270;16.716;2024-02-23T10:14:44;1.75;;;0.90;;
48554;SDS011;34336;48.270;16.716;2024-02-23T10:17:12;2.40;;;0.70;;
48554;SDS011;34336;48.270;16.716;2024-02-23T10:19:40;1.45;;;0.40;;
48554;SDS011;34336;48.270;16.716;2024-02-23T10:22:08;1.25;;;0.57;;
48554;SDS011;34336;48.270;16.716;2024-02-23T10:24:36;1.45;;;0.40;;
48554;SDS011;34336;48.270;16.716;2024-02-23T10:27:04;1.23;;;0.60;;
48554;SDS011;34336;48.270;16.716;2024-02-23T10:29:31;1.73;;;0.80;;
48554;SDS011;34336;48.270;16.716;2024-02-23T10:31:59;1.63;;;0.60;;
48554;SDS011;34336;48.270;16.716;2024-02-23T10:34:30;0.60;;;0.45;;
48554;SDS011;34336;48.270;16.716;2024-02-23T10:36:58;1.55;;;0.50;;
48554;SDS011;34336;48.270;16.716;2024-02-23T10:39:26;0.73;;;0.50;;
48554;SDS011;34336;48.270;16.716;2024-02-23T10:41:57;0.70;;;0.50;;
48554;SDS011;34336;48.270;16.716;2024-02-23T10:44:26;0.95;;;0.50;;
48554;SDS011;34336;48.270;16.716;2024-02-23T10:46:56;0.88;;;0.50;;
48554;SDS011;34336;48.270;16.716;2024-02-23T10:49:26;2.78;;;1.45;;
48554;SDS011;34336;48.270;16.716;2024-02-23T10:51:55;1.58;;;0.80;;
48554;SDS011;34336;48.270;16.716;2024-02-23T10:54:23;2.20;;;1.50;;
48554;SDS011;34336;48.270;16.716;2024-02-23T10:56:52;2.53;;;1.50;;
48554;SDS011;34336;48.270;16.716;2024-02-23T10:59:23;5.07;;;3.40;;
48554;SDS011;34336;48.270;16.716;2024-02-23T11:01:51;0.70;;;0.63;;
48554;SDS011;34336;48.270;16.716;2024-02-23T11:04:19;0.65;;;0.50;;
48554;SDS011;34336;48.270;16.716;2024-02-23T11:06:52;0.70;;;0.40;;
48554;SDS011;34336;48.270;16.716;2024-02-23T11:09:23;0.73;;;0.50;;
48554;SDS011;34336;48.270;16.716;2024-02-23T11:11:55;1.15;;;0.73;;
48554;SDS011;34336;48.270;16.716;2024-02-23T11:14:36;2.20;;;0.90;;
48554;SDS011;34336;48.270;16.716;2024-02-23T11:17:04;1.75;;;0.90;;
48554;SDS011;34336;48.270;16.716;2024-02-23T11:19:35;1.23;;;0.80;;
48554;SDS011;34336;48.270;16.716;2024-02-23T11:22:04;2.45;;;1.30;;
48554;SDS011;34336;48.270;16.716;2024-02-23T11:24:44;1.60;;;0.90;;
48554;SDS011;34336;48.270;16.716;2024-02-23T11:27:15;3.33;;;2.20;;
48554;SDS011;34336;48.270;16.716;2024-02-23T11:29:46;2.33;;;1.23;;
48554;SDS011;34336;48.270;16.716;2024-02-23T11:32:16;3.42;;;2.10;;
48554;SDS011;34336;48.270;16.716;2024-02-23T11:34:56;1.73;;;0.70;;
48554;SDS011;34336;48.270;16.716;2024-02-23T11:37:28;1.13;;;0.70;;
48554;SDS011;34336;48.270;16.716;2024-02-23T11:39:56;0.70;;;0.70;;
48554;SDS011;34336;48.270;16.716;2024-02-23T11:42:24;1.75;;;0.90;;
48554;SDS011;34336;48.270;16.716;2024-02-23T11:44:52;0.80;;;0.80;;
48554;SDS011;34336;48.270;16.716;2024-02-23T11:47:20;1.10;;;0.77;;
48554;SDS011;34336;48.270;16.716;2024-02-23T11:49:48;1.85;;;0.90;;
48554;SDS011;34336;48.270;16.716;2024-02-23T11:52:16;1.00;;;0.60;;
48554;SDS011;34336;48.270;16.716;2024-02-23T11:54:44;0.77;;;0.70;;
48554;SDS011;34336;48.270;16.716;2024-02-23T11:57:11;1.05;;;0.60;;
48554;SDS011;34336;48.270;16.716;2024-02-23T11:59:41;0.60;;;0.60;;
48554;SDS011;34336;48.270;16.716;2024-02-23T12:02:08;0.85;;;0.60;;
48554;SDS011;34336;48.270;16.716;2024-02-23T12:04:36;1.60;;;0.75;;
48554;SDS011;34336;48.270;16.716;2024-02-23T12:07:04;1.05;;;0.80;;
48554;SDS011;34336;48.270;16.716;2024-02-23T12:09:32;1.88;;;0.55;;
48554;SDS011;34336;48.270;16.716;2024-02-23T12:12:00;0.93;;;0.63;;
48554;SDS011;34336;48.270;16.716;2024-02-23T12:14:27;0.93;;;0.70;;
48554;SDS011;34336;48.270;16.716;2024-02-23T12:16:56;1.63;;;0.80;;
48554;SDS011;34336;48.270;16.716;2024-02-23T12:19:24;0.80;;;0.60;;
48554;SDS011;34336;48.270;16.716;2024-02-23T12:21:52;0.65;;;0.50;;
48554;SDS011;34336;48.270;16.716;2024-02-23T12:24:20;1.25;;;0.73;;
48554;SDS011;34336;48.270;16.716;2024-02-23T12:26:53;1.05;;;0.70;;
48554;SDS011;34336;48.270;16.716;2024-02-23T12:29:20;0.75;;;0.65;;
48554;SDS011;34336;48.270;16.716;2024-02-23T12:31:48;2.45;;;0.80;;
48554;SDS011;34336;48.270;16.716;2024-02-23T12:34:16;3.08;;;0.90;;
48554;SDS011;34336;48.270;16.716;2024-02-23T12:36:45;1.25;;;0.77;;
48554;SDS011;34336;48.270;16.716;2024-02-23T12:39:13;2.30;;;0.90;;
48554;SDS011;34336;48.270;16.716;2024-02-23T12:41:41;1.10;;;0.73;;
48554;SDS011;34336;48.270;16.716;2024-02-23T12:44:09;1.00;;;0.70;;
48554;SDS011;34336;48.270;16.716;2024-02-23T12:46:37;1.17;;;0.70;;
48554;SDS011;34336;48.270;16.716;2024-02-23T12:49:05;1.38;;;1.00;;
48554;SDS011;34336;48.270;16.716;2024-02-23T12:51:32;1.38;;;0.80;;
48554;SDS011;34336;48.270;16.716;2024-02-23T12:54:00;0.70;;;0.60;;
48554;SDS011;34336;48.270;16.716;2024-02-23T12:56:28;1.92;;;1.17;;
48554;SDS011;34336;48.270;16.716;2024-02-23T12:58:55;1.20;;;0.82;;
48554;SDS011;34336;48.270;16.716;2024-02-23T13:01:24;1.38;;;1.02;;
48554;SDS011;34336;48.270;16.716;2024-02-23T13:03:52;1.33;;;0.85;;
48554;SDS011;34336;48.270;16.716;2024-02-23T13:06:20;1.52;;;1.40;;
48554;SDS011;34336;48.270;16.716;2024-02-23T13:08:48;1.58;;;1.30;;
48554;SDS011;34336;48.270;16.716;2024-02-23T13:11:16;1.77;;;1.10;;
48554;SDS011;34336;48.270;16.716;2024-02-23T13:13:43;1.88;;;1.23;;
48554;SDS011;34336;48.270;16.716;2024-02-23T13:16:11;1.52;;;1.33;;
48554;SDS011;34336;48.270;16.716;2024-02-23T13:18:41;2.33;;;1.02;;
48554;SDS011;34336;48.270;16.716;2024-02-23T13:21:10;1.30;;;1.13;;
48554;SDS011;34336;48.270;16.716;2024-02-23T13:23:38;1.70;;;1.10;;
48554;SDS011;34336;48.270;16.716;2024-02-23T13:26:06;2.50;;;1.40;;
48554;SDS011;34336;48.270;16.716;2024-02-23T13:28:36;1.40;;;1.15;;
48554;SDS011;34336;48.270;16.716;2024-02-23T13:31:04;2.35;;;1.70;;
48554;SDS011;34336;48.270;16.716;2024-02-23T13:33:32;2.60;;;1.70;;
48554;SDS011;34336;48.270;16.716;2024-02-23T13:35:59;2.42;;;1.80;;
48554;SDS011;34336;48.270;16.716;2024-02-23T13:38:27;4.10;;;1.83;;
48554;SDS011;34336;48.270;16.716;2024-02-23T13:40:55;2.95;;;1.63;;
48554;SDS011;34336;48.270;16.716;2024-02-23T13:43:22;2.30;;;1.60;;
48554;SDS011;34336;48.270;16.716;2024-02-23T13:45:51;3.53;;;1.63;;
48554;SDS011;34336;48.270;16.716;2024-02-23T13:48:19;2.88;;;1.52;;
48554;SDS011;34336;48.270;16.716;2024-02-23T13:50:47;2.10;;;1.40;;
48554;SDS011;34336;48.270;16.716;2024-02-23T13:53:15;2.08;;;1.48;;
48554;SDS011;34336;48.270;16.716;2024-02-23T13:55:43;2.63;;;1.40;;
48554;SDS011;34336;48.270;16.716;2024-02-23T13:58:11;1.60;;;1.50;;
48554;SDS011;34336;48.270;16.716;2024-02-23T14:00:39;1.85;;;1.30;;
48554;SDS011;34336;48.270;16.716;2024-02-23T14:03:07;2.58;;;1.80;;
48554;SDS011;34336;48.270;16.716;2024-02-23T14:05:35;2.65;;;1.42;;
48554;SDS011;34336;48.270;16.716;2024-02-23T14:08:03;2.40;;;1.65;;
48554;SDS011;34336;48.270;16.716;2024-02-23T14:10:34;2.33;;;1.63;;
48554;SDS011;34336;48.270;16.716;2024-02-23T14:13:02;2.75;;;2.10;;
48554;SDS011;34336;48.270;16.716;2024-02-23T14:15:30;5.13;;;3.38;;
48554;SDS011;34336;48.270;16.716;2024-02-23T14:17:57;4.35;;;3.55;;
48554;SDS011;34336;48.270;16.716;2024-02-23T14:20:26;3.97;;;3.58;;
48554;SDS011;34336;48.270;16.716;2024-02-23T14:22:54;4.75;;;3.90;;
48554;SDS011;34336;48.270;16.716;2024-02-23T14:25:22;4.72;;;3.45;;
48554;SDS011;34336;48.270;16.716;2024-02-23T14:27:50;4.07;;;3.63;;
48554;SDS011;34336;48.270;16.716;2024-02-23T14:30:17;6.55;;;3.90;;
48554;SDS011;34336;48.270;16.716;2024-02-23T14:32:45;6.00;;;3.90;;
48554;SDS011;34336;48.270;16.716;2024-02-23T14:35:13;6.57;;;3.97;;
48554;SDS011;34336;48.270;16.716;2024-02-23T14:37:41;5.65;;;3.65;;
48554;SDS011;34336;48.270;16.716;2024-02-23T14:40:09;4.35;;;3.65;;
48554;SDS011;34336;48.270;16.716;2024-02-23T14:42:38;4.38;;;3.72;;